Time;durP1;ratioP1;P1;durP2;ratioP2;P2;SDS_P1;SDS_P2;PMS_P1;PMS_P2;Temp;Humidity;BMP_temperature;BMP_pressure;BME280_temperature;BME280_humidity;BME280_pressure;Samples;Min_cycle;Max_cycle;Signal;HPM_P1;HPM_P2
2022/10/24 00:00:04;;;;;;;13.07;6.53;;;;;;;;;;6306039;22;20006;-77
2022/10/24 00:02:29;;;;;;;11.35;6.63;;;;;;;;;;6306673;22;20392;-77
2022/10/24 00:04:55;;;;;;;10.75;6.00;;;;;;;;;;6252976;22;20419;-77
2022/10/24 00:07:20;;;;;;;10.50;5.90;;;;;;;;;;6306221;22;20010;-79
2022/10/24 00:09:46;;;;;;;11.70;6.78;;;;;;;;;;6278749;22;19999;-78
2022/10/24 00:12:11;;;;;;;11.88;5.78;;;;;;;;;;6278819;22;20011;-77
2022/10/24 00:14:37;;;;;;;10.65;5.70;;;;;;;;;;6278375;22;19996;-77
2022/10/24 00:17:03;;;;;;;14.55;6.45;;;;;;;;;;6306180;22;20007;-80
2022/10/24 00:19:28;;;;;;;13.82;5.70;;;;;;;;;;6305661;22;20021;-78
2022/10/24 00:21:53;;;;;;;10.30;5.93;;;;;;;;;;6305933;22;20003;-76
2022/10/24 00:24:19;;;;;;;11.68;4.95;;;;;;;;;;6278560;22;20315;-77
2022/10/24 00:26:44;;;;;;;11.13;5.35;;;;;;;;;;6278479;22;20159;-78
2022/10/24 00:29:10;;;;;;;8.05;4.97;;;;;;;;;;6278811;22;20006;-78
2022/10/24 00:31:36;;;;;;;8.38;4.68;;;;;;;;;;6305859;22;20007;-78
2022/10/24 00:34:01;;;;;;;8.52;5.25;;;;;;;;;;6305490;22;20001;-77
2022/10/24 00:36:27;;;;;;;13.02;4.80;;;;;;;;;;6305667;22;20003;-78
2022/10/24 00:38:52;;;;;;;14.32;4.85;;;;;;;;;;6305965;22;19999;-78
2022/10/24 00:41:21;;;;;;;12.43;4.80;;;;;;;;;;6305331;22;20450;-78
2022/10/24 00:43:46;;;;;;;14.65;4.97;;;;;;;;;;6305988;22;20072;-77
2022/10/24 00:46:12;;;;;;;9.77;4.55;;;;;;;;;;6305804;22;19999;-78
2022/10/24 00:48:47;;;;;;;13.98;4.85;;;;;;;;;;6278408;22;20078;-80
2022/10/24 00:51:27;;;;;;;8.10;4.90;;;;;;;;;;6278474;22;20381;-78
2022/10/24 00:53:57;;;;;;;10.48;5.32;;;;;;;;;;6278447;22;20074;-78
2022/10/24 00:56:24;;;;;;;10.70;5.50;;;;;;;;;;6252960;22;20003;-78
2022/10/24 00:58:50;;;;;;;11.07;5.30;;;;;;;;;;6305852;22;20086;-77
2022/10/24 01:01:15;;;;;;;9.93;5.13;;;;;;;;;;6278576;22;20061;-77
2022/10/24 01:03:41;;;;;;;14.15;5.32;;;;;;;;;;6278780;22;19999;-80
2022/10/24 01:06:09;;;;;;;12.07;5.63;;;;;;;;;;6305523;22;20349;-79
2022/10/24 01:08:42;;;;;;;11.35;5.80;;;;;;;;;;6305630;22;20086;-77
2022/10/24 01:11:22;;;;;;;11.07;5.63;;;;;;;;;;6278796;22;20010;-77
2022/10/24 01:13:59;;;;;;;17.13;5.90;;;;;;;;;;6280428;22;20011;-77
2022/10/24 01:16:28;;;;;;;11.32;5.50;;;;;;;;;;6252701;22;20085;-78
2022/10/24 01:19:15;;;;;;;10.77;5.80;;;;;;;;;;6278644;22;20358;-77
2022/10/24 01:21:43;;;;;;;14.18;6.32;;;;;;;;;;6305546;22;20007;-77
2022/10/24 01:24:39;;;;;;;14.13;5.78;;;;;;;;;;6278950;22;20006;-78
2022/10/24 01:27:32;;;;;;;24.63;7.82;;;;;;;;;;6306776;22;20007;-77
2022/10/24 01:30:05;;;;;;;19.85;7.70;;;;;;;;;;6280322;22;20349;-77
2022/10/24 01:33:04;;;;;;;11.00;6.90;;;;;;;;;;6254466;22;20487;-78
2022/10/24 01:35:57;;;;;;;13.82;7.30;;;;;;;;;;6251846;22;20003;-77
2022/10/24 01:38:45;;;;;;;14.43;7.97;;;;;;;;;;6307739;22;20065;-77
2022/10/24 01:41:13;;;;;;;22.00;8.50;;;;;;;;;;6256618;22;20119;-77
2022/10/24 01:44:05;;;;;;;18.17;8.40;;;;;;;;;;6255096;22;20354;-77
2022/10/24 01:46:39;;;;;;;15.05;8.40;;;;;;;;;;6256474;22;20000;-78
2022/10/24 01:49:09;;;;;;;14.52;8.32;;;;;;;;;;6255694;22;20377;-77
2022/10/24 01:51:34;;;;;;;17.20;8.27;;;;;;;;;;6254637;22;20341;-79
2022/10/24 01:54:00;;;;;;;15.82;7.70;;;;;;;;;;6307213;22;20004;-78
2022/10/24 01:56:26;;;;;;;16.80;8.10;;;;;;;;;;6254697;22;19999;-78
2022/10/24 01:58:51;;;;;;;16.45;8.13;;;;;;;;;;6280126;22;20007;-77
2022/10/24 02:01:20;;;;;;;19.42;7.93;;;;;;;;;;6306868;22;20006;-77
2022/10/24 02:03:49;;;;;;;18.85;8.63;;;;;;;;;;6307174;22;20448;-77
2022/10/24 02:06:17;;;;;;;15.63;7.88;;;;;;;;;;6307053;22;20094;-78
2022/10/24 02:08:45;;;;;;;16.63;7.72;;;;;;;;;;6254902;22;20086;-78
2022/10/24 02:11:10;;;;;;;15.35;7.53;;;;;;;;;;6280150;22;20015;-77
2022/10/24 02:14:03;;;;;;;14.98;7.70;;;;;;;;;;6279917;22;20004;-77
2022/10/24 02:16:29;;;;;;;17.30;7.85;;;;;;;;;;6259173;22;20070;-77
2022/10/24 02:18:55;;;;;;;15.75;8.02;;;;;;;;;;6279755;22;20010;-77
2022/10/24 02:21:42;;;;;;;12.68;7.68;;;;;;;;;;6229213;22;20003;-77
2022/10/24 02:24:14;;;;;;;13.38;7.53;;;;;;;;;;6283884;22;20010;-77
2022/10/24 02:26:55;;;;;;;12.55;7.28;;;;;;;;;;6306738;22;20342;-77
2022/10/24 02:29:26;;;;;;;15.15;7.57;;;;;;;;;;6279437;22;20357;-78
2022/10/24 02:31:53;;;;;;;12.82;6.72;;;;;;;;;;6280295;22;20004;-77
2022/10/24 02:34:19;;;;;;;11.73;7.05;;;;;;;;;;6279800;22;20003;-77
2022/10/24 02:36:44;;;;;;;11.23;7.00;;;;;;;;;;6253759;22;20012;-77
2022/10/24 02:39:10;;;;;;;11.48;6.60;;;;;;;;;;6279263;22;19995;-78
2022/10/24 02:41:36;;;;;;;11.57;7.03;;;;;;;;;;6306743;22;20007;-77
2022/10/24 02:44:02;;;;;;;10.48;7.13;;;;;;;;;;6278972;22;20345;-77
2022/10/24 02:46:27;;;;;;;12.77;7.40;;;;;;;;;;6279486;22;20027;-77
2022/10/24 02:49:00;;;;;;;14.43;7.85;;;;;;;;;;6254531;22;20083;-78
2022/10/24 02:51:29;;;;;;;14.68;7.43;;;;;;;;;;6253926;22;20010;-78
2022/10/24 02:53:55;;;;;;;11.68;7.03;;;;;;;;;;6254355;22;20010;-77
2022/10/24 02:56:21;;;;;;;10.77;6.70;;;;;;;;;;6306621;22;20029;-77
2022/10/24 02:58:46;;;;;;;14.13;7.55;;;;;;;;;;6306429;22;20461;-78
2022/10/24 03:01:12;;;;;;;12.30;7.57;;;;;;;;;;6306967;22;19996;-77
2022/10/24 03:03:37;;;;;;;13.23;7.65;;;;;;;;;;6306897;22;20007;-79
2022/10/24 03:06:03;;;;;;;14.90;7.80;;;;;;;;;;6306866;22;20406;-77
2022/10/24 03:08:28;;;;;;;14.88;7.80;;;;;;;;;;6279462;22;20007;-76
2022/10/24 03:10:54;;;;;;;19.27;8.68;;;;;;;;;;6306945;22;20074;-78
2022/10/24 03:13:20;;;;;;;19.98;8.93;;;;;;;;;;6306502;22;19999;-78
2022/10/24 03:15:45;;;;;;;15.75;8.63;;;;;;;;;;6306427;22;19996;-77
2022/10/24 03:18:11;;;;;;;20.90;9.25;;;;;;;;;;6306438;22;20014;-77
2022/10/24 03:20:36;;;;;;;17.88;9.10;;;;;;;;;;6306442;22;20006;-77
2022/10/24 03:23:02;;;;;;;15.23;8.15;;;;;;;;;;6306639;22;19999;-77
2022/10/24 03:25:27;;;;;;;12.00;6.85;;;;;;;;;;6306637;22;20062;-77
2022/10/24 03:27:52;;;;;;;13.65;7.25;;;;;;;;;;6305912;22;20384;-78
2022/10/24 03:30:18;;;;;;;17.27;7.72;;;;;;;;;;6306403;22;20010;-76
2022/10/24 03:32:44;;;;;;;12.40;7.75;;;;;;;;;;6306560;22;20006;-77
2022/10/24 03:35:21;;;;;;;15.25;8.77;;;;;;;;;;6279309;22;20014;-78
2022/10/24 03:37:47;;;;;;;29.90;12.90;;;;;;;;;;6306483;22;20000;-77
2022/10/24 03:40:14;;;;;;;23.90;11.23;;;;;;;;;;6274002;22;20449;-77
2022/10/24 03:42:39;;;;;;;20.55;9.93;;;;;;;;;;6273528;22;20000;-78
2022/10/24 03:45:05;;;;;;;12.43;7.05;;;;;;;;;;6275485;22;20411;-77
2022/10/24 03:47:31;;;;;;;14.20;7.10;;;;;;;;;;6274233;22;20008;-77
2022/10/24 03:49:56;;;;;;;10.18;6.20;;;;;;;;;;6274379;22;20092;-78
2022/10/24 03:52:22;;;;;;;9.15;6.03;;;;;;;;;;6274479;22;20334;-77
2022/10/24 03:54:47;;;;;;;8.30;5.55;;;;;;;;;;6274023;22;20427;-79
2022/10/24 03:57:13;;;;;;;12.77;6.65;;;;;;;;;;6274898;22;20030;-78
2022/10/24 03:59:38;;;;;;;11.85;7.28;;;;;;;;;;6275429;22;20346;-78
2022/10/24 04:02:04;;;;;;;32.85;13.68;;;;;;;;;;6275562;22;20006;-78
2022/10/24 04:04:48;;;;;;;36.53;19.55;;;;;;;;;;6275648;22;20110;-78
2022/10/24 04:07:14;;;;;;;36.70;20.95;;;;;;;;;;6274009;22;20012;-78
2022/10/24 04:09:42;;;;;;;28.98;16.90;;;;;;;;;;6276207;22;20004;-85
2022/10/24 04:12:08;;;;;;;20.10;12.10;;;;;;;;;;6274510;22;20003;-81
2022/10/24 04:31:19;;;;;;;12.60;7.50;;;;;;;;;;6260190;22;20019;-79
2022/10/24 04:33:44;;;;;;;14.85;7.65;;;;;;;;;;6274916;22;20031;-80
2022/10/24 04:36:09;;;;;;;12.23;8.65;;;;;;;;;;6274906;22;20014;-80
2022/10/24 04:38:35;;;;;;;23.50;9.50;;;;;;;;;;6275191;22;20057;-81
2022/10/24 04:41:01;;;;;;;29.38;9.15;;;;;;;;;;6274132;22;20004;-81
2022/10/24 04:43:26;;;;;;;14.85;8.30;;;;;;;;;;6280267;22;20008;-81
2022/10/24 04:45:52;;;;;;;17.23;8.25;;;;;;;;;;6273828;22;20043;-81
2022/10/24 04:48:17;;;;;;;14.20;7.95;;;;;;;;;;6247447;22;20426;-79
2022/10/24 04:50:44;;;;;;;16.38;7.32;;;;;;;;;;6274803;22;20456;-79
2022/10/24 04:53:10;;;;;;;13.95;7.07;;;;;;;;;;6217879;22;20423;-82
2022/10/24 04:55:38;;;;;;;14.48;6.93;;;;;;;;;;6249300;22;20011;-80
2022/10/24 04:58:04;;;;;;;20.23;7.55;;;;;;;;;;6245184;22;20003;-80
2022/10/24 05:00:50;;;;;;;13.25;7.10;;;;;;;;;;6268948;22;20031;-81
2022/10/24 05:03:19;;;;;;;14.35;7.70;;;;;;;;;;6268366;22;20069;-76
2022/10/24 05:05:45;;;;;;;12.98;7.15;;;;;;;;;;6246537;22;20019;-80
2022/10/24 05:08:13;;;;;;;16.90;8.73;;;;;;;;;;6218776;22;20003;-80
2022/10/24 05:10:38;;;;;;;18.13;8.77;;;;;;;;;;6202021;22;20008;-80
2022/10/24 05:13:04;;;;;;;17.92;9.15;;;;;;;;;;6271587;22;20109;-78
2022/10/24 05:15:32;;;;;;;32.00;13.43;;;;;;;;;;6269659;22;20003;-81
2022/10/24 05:17:59;;;;;;;29.15;12.50;;;;;;;;;;6268835;22;20011;-78
2022/10/24 05:20:24;;;;;;;24.15;12.57;;;;;;;;;;6242210;22;20008;-76
2022/10/24 05:22:50;;;;;;;25.77;11.50;;;;;;;;;;6269057;22;20019;-76
2022/10/24 05:25:16;;;;;;;23.23;10.88;;;;;;;;;;6271135;22;20003;-79
2022/10/24 05:27:41;;;;;;;23.25;10.52;;;;;;;;;;6272439;22;20123;-80
2022/10/24 05:30:07;;;;;;;25.40;10.95;;;;;;;;;;6281947;22;20003;-80
2022/10/24 05:32:32;;;;;;;22.05;10.82;;;;;;;;;;6307158;22;20057;-80
2022/10/24 05:34:59;;;;;;;25.55;11.63;;;;;;;;;;6256303;22;20007;-80
2022/10/24 05:37:25;;;;;;;23.40;10.95;;;;;;;;;;6279680;22;20311;-79
2022/10/24 05:39:50;;;;;;;34.08;11.75;;;;;;;;;;6307319;22;20037;-79
2022/10/24 05:42:16;;;;;;;25.83;11.20;;;;;;;;;;6305965;22;20018;-77
2022/10/24 05:44:41;;;;;;;25.40;9.82;;;;;;;;;;6251397;22;20072;-79
2022/10/24 05:47:13;;;;;;;23.90;10.32;;;;;;;;;;6304064;22;20010;-79
2022/10/24 05:49:41;;;;;;;32.53;10.77;;;;;;;;;;6271556;22;20402;-81
2022/10/24 05:52:07;;;;;;;43.72;10.77;;;;;;;;;;6249787;22;19995;-77
2022/10/24 05:54:37;;;;;;;110.25;13.13;;;;;;;;;;6277524;22;20152;-80
2022/10/24 05:57:03;;;;;;;33.90;9.90;;;;;;;;;;6306013;22;20023;-79
2022/10/24 05:59:28;;;;;;;26.63;9.82;;;;;;;;;;6305415;22;20065;-79
2022/10/24 06:01:54;;;;;;;22.98;10.23;;;;;;;;;;6306778;22;20315;-79
2022/10/24 06:04:28;;;;;;;35.08;11.73;;;;;;;;;;6252746;22;20075;-80
2022/10/24 06:06:55;;;;;;;28.30;11.65;;;;;;;;;;6304855;22;20010;-80
2022/10/24 06:09:20;;;;;;;32.50;11.10;;;;;;;;;;6302509;22;20007;-79
2022/10/24 06:11:46;;;;;;;41.38;11.73;;;;;;;;;;6303607;22;20077;-79
2022/10/24 06:14:12;;;;;;;25.88;11.32;;;;;;;;;;6303548;22;19999;-79
2022/10/24 06:16:43;;;;;;;27.42;11.85;;;;;;;;;;6306991;22;20003;-79
2022/10/24 06:19:09;;;;;;;32.92;11.63;;;;;;;;;;6307257;22;20007;-79
2022/10/24 06:21:49;;;;;;;25.35;11.10;;;;;;;;;;6307208;22;20003;-80
2022/10/24 06:24:38;;;;;;;21.75;10.98;;;;;;;;;;6232102;22;20067;-80
2022/10/24 06:27:31;;;;;;;29.05;11.57;;;;;;;;;;6267529;22;20145;-79
2022/10/24 06:29:57;;;;;;;29.65;12.13;;;;;;;;;;6318591;22;20022;-79
2022/10/24 06:32:23;;;;;;;28.90;13.57;;;;;;;;;;6264985;22;20003;-81
2022/10/24 06:34:49;;;;;;;40.03;13.82;;;;;;;;;;6313211;22;20003;-79
2022/10/24 06:37:17;;;;;;;31.70;12.68;;;;;;;;;;6315965;22;20060;-79
2022/10/24 06:39:43;;;;;;;29.48;12.02;;;;;;;;;;6289402;22;20086;-81
2022/10/24 06:42:08;;;;;;;31.15;10.98;;;;;;;;;;6313263;22;19987;-79
2022/10/24 06:44:34;;;;;;;24.77;10.77;;;;;;;;;;6282596;22;20003;-81
2022/10/24 06:46:59;;;;;;;21.88;10.82;;;;;;;;;;6282903;22;20009;-78
2022/10/24 06:49:25;;;;;;;20.15;10.45;;;;;;;;;;6310450;22;20007;-77
2022/10/24 06:51:53;;;;;;;31.90;10.32;;;;;;;;;;6288374;22;20230;-78
2022/10/24 06:54:18;;;;;;;24.00;10.02;;;;;;;;;;6276804;22;20065;-79
2022/10/24 06:56:44;;;;;;;21.95;10.20;;;;;;;;;;6263918;22;20011;-80
2022/10/24 06:59:29;;;;;;;21.70;9.80;;;;;;;;;;6300703;22;20003;-77
2022/10/24 07:01:55;;;;;;;24.25;10.05;;;;;;;;;;6320548;22;20029;-80
2022/10/24 07:04:30;;;;;;;22.98;9.48;;;;;;;;;;6258546;22;20011;-76
2022/10/24 07:06:56;;;;;;;23.23;9.40;;;;;;;;;;6311611;22;20003;-78
2022/10/24 07:09:22;;;;;;;29.48;9.07;;;;;;;;;;6307249;22;20420;-80
2022/10/24 07:11:47;;;;;;;13.00;8.35;;;;;;;;;;6253413;22;20769;-79
2022/10/24 07:14:16;;;;;;;18.65;8.93;;;;;;;;;;6287124;22;20010;-80
2022/10/24 07:16:42;;;;;;;20.88;8.38;;;;;;;;;;6280768;22;19999;-78
2022/10/24 07:19:07;;;;;;;20.33;9.05;;;;;;;;;;6272959;22;20038;-77
2022/10/24 07:25:01;;;;;;;23.77;6.85;;;;;;;;;;6265971;22;20022;-78
2022/10/24 07:27:26;;;;;;;13.48;6.70;;;;;;;;;;6299991;22;20003;-77
2022/10/24 07:29:52;;;;;;;13.32;7.00;;;;;;;;;;6249744;22;20010;-77
2022/10/24 07:32:18;;;;;;;11.88;7.07;;;;;;;;;;6272440;22;19995;-76
2022/10/24 07:34:46;;;;;;;14.73;7.40;;;;;;;;;;6277163;22;20010;-78
2022/10/24 07:37:15;;;;;;;15.48;6.97;;;;;;;;;;6274270;22;20006;-78
2022/10/24 07:39:42;;;;;;;18.13;7.10;;;;;;;;;;6274303;22;20007;-77
2022/10/24 07:42:09;;;;;;;21.73;7.18;;;;;;;;;;6269514;22;20010;-78
2022/10/24 07:44:35;;;;;;;13.60;7.00;;;;;;;;;;6301510;22;20396;-78
2022/10/24 07:47:05;;;;;;;18.13;7.57;;;;;;;;;;6297107;22;20003;-78
2022/10/24 07:49:31;;;;;;;;;;;;;;;;;;6296469;22;20068;-77
2022/10/24 07:51:56;;;;;;;15.82;6.93;;;;;;;;;;6297756;22;19907;-77
2022/10/24 07:54:21;;;;;;;16.17;7.22;;;;;;;;;;6296457;22;20027;-78
2022/10/24 07:56:48;;;;;;;19.05;7.45;;;;;;;;;;6294662;22;20003;-76
2022/10/24 07:59:17;;;;;;;17.38;7.68;;;;;;;;;;6294880;22;20068;-77
2022/10/24 08:01:49;;;;;;;15.38;7.78;;;;;;;;;;6267946;22;20841;-79
2022/10/24 08:04:15;;;;;;;18.02;7.63;;;;;;;;;;6267327;22;20003;-77
2022/10/24 08:06:41;;;;;;;15.25;7.40;;;;;;;;;;6296589;22;20018;-77
2022/10/24 08:09:07;;;;;;;22.25;7.80;;;;;;;;;;6269138;22;20391;-77
2022/10/24 08:11:32;;;;;;;13.57;7.72;;;;;;;;;;6273176;22;20064;-77
2022/10/24 08:13:58;;;;;;;15.65;7.50;;;;;;;;;;6296007;22;20666;-79
2022/10/24 08:16:24;;;;;;;15.20;8.05;;;;;;;;;;6270023;22;19999;-78
2022/10/24 08:18:51;;;;;;;15.20;8.43;;;;;;;;;;6272997;22;20011;-76
2022/10/24 08:21:20;;;;;;;13.57;8.20;;;;;;;;;;6215982;22;20011;-78
2022/10/24 08:23:47;;;;;;;25.33;8.40;;;;;;;;;;6273052;22;20568;-78
2022/10/24 08:26:14;;;;;;;15.60;8.25;;;;;;;;;;6300603;22;20459;-79
2022/10/24 08:28:40;;;;;;;18.33;8.45;;;;;;;;;;6296126;22;20050;-78
2022/10/24 08:31:07;;;;;;;14.23;8.00;;;;;;;;;;6298412;22;20018;-78
2022/10/24 08:33:33;;;;;;;19.60;9.07;;;;;;;;;;6300258;22;20002;-78
2022/10/24 08:36:00;;;;;;;17.88;9.00;;;;;;;;;;6274429;22;20004;-78
2022/10/24 08:38:26;;;;;;;16.13;9.32;;;;;;;;;;6251853;22;20007;-74
2022/10/24 08:40:52;;;;;;;19.88;8.70;;;;;;;;;;6302691;22;19999;-77
2022/10/24 08:43:17;;;;;;;18.17;9.23;;;;;;;;;;6303672;22;20365;-76
2022/10/24 08:46:01;;;;;;;18.75;8.98;;;;;;;;;;6275151;22;20056;-77
2022/10/24 08:48:33;;;;;;;23.83;9.82;;;;;;;;;;6305527;22;20008;-79
2022/10/24 08:51:29;;;;;;;19.67;9.43;;;;;;;;;;6278925;22;19999;-77
2022/10/24 08:53:55;;;;;;;26.20;9.20;;;;;;;;;;6299057;22;20087;-78
2022/10/24 08:56:21;;;;;;;18.45;9.23;;;;;;;;;;6247847;22;20156;-77
2022/10/24 08:58:47;;;;;;;18.02;9.73;;;;;;;;;;6270646;22;20315;-78
2022/10/24 09:01:17;;;;;;;22.00;9.80;;;;;;;;;;6265519;22;20015;-78
2022/10/24 09:03:44;;;;;;;21.40;10.38;;;;;;;;;;6273831;22;20000;-78
2022/10/24 09:06:16;;;;;;;21.90;9.60;;;;;;;;;;6225240;22;20003;-76
2022/10/24 09:08:58;;;;;;;19.27;10.02;;;;;;;;;;6245931;22;20011;-78
2022/10/24 09:11:45;;;;;;;19.92;9.52;;;;;;;;;;6295909;22;19999;-76
2022/10/24 09:14:30;;;;;;;20.15;9.85;;;;;;;;;;6269650;22;20011;-76
2022/10/24 09:17:09;;;;;;;17.55;9.57;;;;;;;;;;6298300;22;20082;-75
2022/10/24 09:19:36;;;;;;;21.60;10.85;;;;;;;;;;6272753;22;20065;-77
2022/10/24 09:22:04;;;;;;;19.83;10.75;;;;;;;;;;6220465;22;20035;-79
2022/10/24 09:24:56;;;;;;;21.02;10.60;;;;;;;;;;6273895;22;20350;-78
2022/10/24 09:27:29;;;;;;;17.98;9.90;;;;;;;;;;6279758;22;20027;-75
2022/10/24 09:29:58;;;;;;;25.45;10.85;;;;;;;;;;6251152;22;20048;-79
2022/10/24 09:32:29;;;;;;;22.17;10.57;;;;;;;;;;6301438;22;20637;-77
2022/10/24 09:34:55;;;;;;;23.70;10.35;;;;;;;;;;6251563;22;20006;-78
2022/10/24 09:37:54;;;;;;;20.08;10.55;;;;;;;;;;6250790;22;20007;-79
2022/10/24 09:40:27;;;;;;;21.67;10.52;;;;;;;;;;6282371;22;20039;-78
2022/10/24 09:42:57;;;;;;;21.17;10.88;;;;;;;;;;6274382;22;20049;-79
2022/10/24 09:45:33;;;;;;;17.08;10.77;;;;;;;;;;6300916;22;20060;-78
2022/10/24 09:48:16;;;;;;;21.65;10.55;;;;;;;;;;6273457;22;20007;-78
2022/10/24 09:50:42;;;;;;;22.38;10.60;;;;;;;;;;6276832;22;20031;-79
2022/10/24 09:53:19;;;;;;;20.15;10.27;;;;;;;;;;6301454;22;20063;-80
2022/10/24 09:55:47;;;;;;;23.13;10.15;;;;;;;;;;6254872;22;20089;-80
2022/10/24 09:58:18;;;;;;;19.30;10.20;;;;;;;;;;6252233;22;19999;-80
2022/10/24 10:01:07;;;;;;;18.80;9.85;;;;;;;;;;6250471;22;20041;-79
2022/10/24 10:03:48;;;;;;;20.15;10.52;;;;;;;;;;6240761;22;20034;-79
2022/10/24 10:06:18;;;;;;;22.88;10.88;;;;;;;;;;6276467;22;20350;-77
2022/10/24 10:08:55;;;;;;;18.58;10.43;;;;;;;;;;6280700;22;20000;-77
2022/10/24 10:11:31;;;;;;;24.45;10.57;;;;;;;;;;6274617;22;20038;-78
2022/10/24 10:14:00;;;;;;;17.50;10.07;;;;;;;;;;6246668;22;20015;-79
2022/10/24 10:16:30;;;;;;;20.10;9.38;;;;;;;;;;6252069;22;20026;-77
2022/10/24 10:19:19;;;;;;;17.33;9.35;;;;;;;;;;6302368;22;20634;-79
2022/10/24 10:22:01;;;;;;;18.58;9.15;;;;;;;;;;6273511;22;20015;-76
2022/10/24 10:24:39;;;;;;;25.95;8.90;;;;;;;;;;6244295;22;20007;-78
2022/10/24 10:27:29;;;;;;;19.13;9.07;;;;;;;;;;6247899;22;20006;-76
2022/10/24 10:30:13;;;;;;;17.00;8.90;;;;;;;;;;6297543;22;20094;-77
2022/10/24 10:33:20;;;;;;;17.42;8.23;;;;;;;;;;6303620;22;20395;-80
2022/10/24 10:36:06;;;;;;;18.92;7.95;;;;;;;;;;6281210;22;19999;-79
2022/10/24 10:38:51;;;;;;;20.85;8.55;;;;;;;;;;6300978;22;20010;-78
2022/10/24 10:41:47;;;;;;;24.58;8.57;;;;;;;;;;6271344;22;19999;-79
2022/10/24 10:44:42;;;;;;;18.95;7.78;;;;;;;;;;6303431;22;20028;-79
2022/10/24 10:47:23;;;;;;;22.00;7.63;;;;;;;;;;6259284;22;20418;-80
2022/10/24 10:49:52;;;;;;;16.85;8.02;;;;;;;;;;6272060;22;20087;-79
2022/10/24 10:52:28;;;;;;;15.45;7.53;;;;;;;;;;6280176;22;20422;-79
2022/10/24 10:55:00;;;;;;;20.73;6.90;;;;;;;;;;6272698;22;20121;-78
2022/10/24 10:57:43;;;;;;;11.43;7.10;;;;;;;;;;6299798;22;19999;-79
2022/10/24 11:00:19;;;;;;;19.23;6.97;;;;;;;;;;6298467;22;20041;-78
2022/10/24 11:03:06;;;;;;;15.57;6.55;;;;;;;;;;6274558;22;20015;-78
2022/10/24 11:06:10;;;;;;;11.23;5.97;;;;;;;;;;6274328;22;19999;-79
2022/10/24 11:08:42;;;;;;;17.02;7.22;;;;;;;;;;6276067;22;20086;-78
2022/10/24 11:11:31;;;;;;;16.52;7.82;;;;;;;;;;6250596;22;20461;-78
2022/10/24 11:14:04;;;;;;;19.40;7.70;;;;;;;;;;6256671;22;19999;-78
2022/10/24 11:16:30;;;;;;;11.65;6.70;;;;;;;;;;6250668;22;20035;-78
2022/10/24 11:18:59;;;;;;;21.40;7.07;;;;;;;;;;6250469;22;20011;-79
2022/10/24 11:21:24;;;;;;;18.67;7.03;;;;;;;;;;6250480;22;20018;-79
2022/10/24 11:24:05;;;;;;;14.70;6.63;;;;;;;;;;6275702;22;20354;-79
2022/10/24 11:26:52;;;;;;;15.75;6.30;;;;;;;;;;6255609;22;20000;-80
2022/10/24 11:29:17;;;;;;;13.65;6.50;;;;;;;;;;6279646;22;19995;-79
2022/10/24 11:31:46;;;;;;;11.35;5.85;;;;;;;;;;6307823;22;20014;-79
2022/10/24 11:34:32;;;;;;;13.43;6.13;;;;;;;;;;6279467;22;20014;-78
2022/10/24 11:37:22;;;;;;;12.07;5.70;;;;;;;;;;6280686;22;20396;-79
2022/10/24 11:39:56;;;;;;;;;;;;;;;;;;6304517;22;20000;-80
2022/10/24 11:43:09;;;;;;;10.80;5.97;;;;;;;;;;6303015;22;20326;-80
2022/10/24 11:45:59;;;;;;;14.27;6.60;;;;;;;;;;6303785;22;20373;-79
2022/10/24 11:48:39;;;;;;;13.00;6.90;;;;;;;;;;6303344;22;20045;-79
2022/10/24 11:51:23;;;;;;;10.98;5.38;;;;;;;;;;6250454;22;20003;-79
2022/10/24 11:53:52;;;;;;;9.20;5.68;;;;;;;;;;6302326;22;20045;-80
2022/10/24 11:56:29;;;;;;;12.35;6.43;;;;;;;;;;6302238;22;20438;-80
2022/10/24 11:59:03;;;;;;;13.93;6.00;;;;;;;;;;6277735;22;20098;-79
2022/10/24 12:01:57;;;;;;;8.85;5.40;;;;;;;;;;6276613;22;20008;-79
2022/10/24 12:04:56;;;;;;;11.48;5.53;;;;;;;;;;6252894;22;20057;-80
2022/10/24 12:08:01;;;;;;;15.57;6.30;;;;;;;;;;6305086;22;20010;-79
2022/10/24 12:10:48;;;;;;;12.05;6.05;;;;;;;;;;6277197;22;20006;-79
2022/10/24 12:13:30;;;;;;;11.02;6.68;;;;;;;;;;6278914;22;20082;-79
2022/10/24 12:16:23;;;;;;;13.50;6.30;;;;;;;;;;6279313;22;20003;-80
2022/10/24 12:18:57;;;;;;;24.30;6.47;;;;;;;;;;6305944;22;20003;-79
2022/10/24 12:21:25;;;;;;;16.67;6.72;;;;;;;;;;6273570;22;20065;-79
2022/10/24 12:23:55;;;;;;;10.40;6.32;;;;;;;;;;6273288;22;20019;-79
2022/10/24 12:26:27;;;;;;;17.77;7.80;;;;;;;;;;6273273;22;20000;-80
2022/10/24 12:29:17;;;;;;;15.90;6.97;;;;;;;;;;6273139;22;20004;-79
2022/10/24 12:31:42;;;;;;;17.00;7.40;;;;;;;;;;6273283;22;20408;-79
2022/10/24 12:34:17;;;;;;;15.93;8.07;;;;;;;;;;6222781;22;20000;-79
2022/10/24 12:37:08;;;;;;;20.40;8.80;;;;;;;;;;6275159;22;20061;-79
2022/10/24 12:39:36;;;;;;;16.05;8.00;;;;;;;;;;6272795;22;20015;-79
2022/10/24 12:42:02;;;;;;;17.48;7.13;;;;;;;;;;6273620;22;19999;-79
2022/10/24 12:44:31;;;;;;;11.88;6.55;;;;;;;;;;6275099;22;20041;-80
2022/10/24 12:46:56;;;;;;;22.25;6.93;;;;;;;;;;6272943;22;20027;-79
2022/10/24 12:49:30;;;;;;;19.35;8.10;;;;;;;;;;6243224;23;20020;-79
2022/10/24 12:51:56;;;;;;;17.75;7.57;;;;;;;;;;6244447;22;20004;-79
2022/10/24 12:54:38;;;;;;;14.90;7.70;;;;;;;;;;6217643;23;20481;-79
2022/10/24 12:57:03;;;;;;;16.80;9.63;;;;;;;;;;6243935;22;20004;-80
2022/10/24 12:59:30;;;;;;;17.60;7.78;;;;;;;;;;6244009;23;20011;-80
2022/10/24 13:02:14;;;;;;;19.23;8.02;;;;;;;;;;6242283;23;20007;-80
2022/10/24 13:05:04;;;;;;;21.98;8.00;;;;;;;;;;6243904;23;20010;-81
2022/10/24 13:08:10;;;;;;;16.75;7.80;;;;;;;;;;6243296;23;20000;-79
2022/10/24 13:11:06;;;;;;;20.92;8.50;;;;;;;;;;6217730;23;20008;-80
2022/10/24 13:13:37;;;;;;;17.40;8.25;;;;;;;;;;6241090;23;20000;-79
2022/10/24 13:16:35;;;;;;;14.93;8.25;;;;;;;;;;6242110;23;20035;-79
2022/10/24 13:19:18;;;;;;;15.05;8.38;;;;;;;;;;6197295;22;20008;-80
2022/10/24 13:22:01;;;;;;;18.00;8.43;;;;;;;;;;6242847;23;20018;-80
2022/10/24 13:24:34;;;;;;;24.88;8.50;;;;;;;;;;6244761;23;20004;-80
2022/10/24 13:27:03;;;;;;;19.33;8.10;;;;;;;;;;6219936;23;20062;-80
2022/10/24 13:29:28;;;;;;;23.00;8.95;;;;;;;;;;6244315;23;20091;-80
2022/10/24 13:32:14;;;;;;;26.65;8.93;;;;;;;;;;6246376;22;20022;-81
2022/10/24 13:34:49;;;;;;;21.25;9.10;;;;;;;;;;6246094;23;20038;-80
2022/10/24 13:37:39;;;;;;;19.20;8.80;;;;;;;;;;6246018;23;20034;-80
2022/10/24 13:40:14;;;;;;;27.38;12.65;;;;;;;;;;6244472;23;20008;-80
2022/10/24 13:42:50;;;;;;;21.40;9.18;;;;;;;;;;6245826;22;20008;-80
2022/10/24 13:45:32;;;;;;;19.10;9.35;;;;;;;;;;6244403;23;20027;-79
2022/10/24 13:48:08;;;;;;;24.67;8.57;;;;;;;;;;6244461;23;20387;-80
2022/10/24 13:50:35;;;;;;;24.58;8.93;;;;;;;;;;6243996;23;20000;-80
2022/10/24 13:53:12;;;;;;;16.02;7.60;;;;;;;;;;6218963;23;20011;-80
2022/10/24 13:55:40;;;;;;;24.63;10.38;;;;;;;;;;6243773;23;20431;-80
2022/10/24 13:58:11;;;;;;;65.32;18.60;;;;;;;;;;6218213;23;20024;-80
2022/10/24 14:00:48;;;;;;;18.52;8.13;;;;;;;;;;6245852;22;20380;-80
2022/10/24 14:03:18;;;;;;;39.35;13.27;;;;;;;;;;6245409;22;20406;-79
2022/10/24 14:05:50;;;;;;;;;;;;;;;;;;6244583;23;20007;-79
2022/10/24 14:08:21;;;;;;;33.15;11.77;;;;;;;;;;6244236;23;19908;-78
2022/10/24 14:10:48;;;;;;;29.52;12.18;;;;;;;;;;6219242;23;20039;-79
2022/10/24 14:13:14;;;;;;;27.45;11.13;;;;;;;;;;6193938;23;20340;-78
2022/10/24 14:15:48;;;;;;;21.33;9.05;;;;;;;;;;6217103;23;20008;-80
2022/10/24 14:18:13;;;;;;;25.67;9.27;;;;;;;;;;6219573;23;20004;-79
2022/10/24 14:20:39;;;;;;;19.40;9.43;;;;;;;;;;6264410;22;20054;-79
2022/10/24 14:23:37;;;;;;;20.45;8.48;;;;;;;;;;6249347;22;20087;-78
2022/10/24 14:26:06;;;;;;;19.20;8.80;;;;;;;;;;6221840;22;19999;-79
2022/10/24 14:28:39;;;;;;;23.17;8.77;;;;;;;;;;6275538;22;20102;-81
2022/10/24 14:31:06;;;;;;;21.38;8.88;;;;;;;;;;6248516;22;20431;-81
2022/10/24 14:33:50;;;;;;;28.95;9.52;;;;;;;;;;6222526;22;20493;-78
2022/10/24 14:36:21;;;;;;;24.23;10.55;;;;;;;;;;6250660;22;20011;-80
2022/10/24 14:38:49;;;;;;;25.88;10.70;;;;;;;;;;6251011;22;20000;-80
2022/10/24 14:41:15;;;;;;;23.88;10.48;;;;;;;;;;6251499;22;20030;-80
2022/10/24 14:43:41;;;;;;;20.48;9.43;;;;;;;;;;6227809;22;20061;-80
2022/10/24 14:46:12;;;;;;;25.00;9.55;;;;;;;;;;6252467;22;20008;-79
2022/10/24 14:48:42;;;;;;;23.67;9.63;;;;;;;;;;6247932;22;20011;-80
2022/10/24 14:51:46;;;;;;;;;;;;;;;;;;6224234;22;20095;-79
2022/10/24 14:54:22;;;;;;;24.65;9.25;;;;;;;;;;6181452;23;20047;-78
2022/10/24 14:56:48;;;;;;;27.35;9.82;;;;;;;;;;6158099;23;20457;-79
2022/10/24 14:59:36;;;;;;;24.30;10.40;;;;;;;;;;6181714;22;20011;-79
2022/10/24 15:02:18;;;;;;;30.20;9.90;;;;;;;;;;6248252;22;20004;-80
2022/10/24 15:04:44;;;;;;;27.60;9.95;;;;;;;;;;6224703;22;19999;-79
2022/10/24 15:07:22;;;;;;;30.38;10.65;;;;;;;;;;6223551;22;19999;-78
2022/10/24 15:09:57;;;;;;;21.38;10.40;;;;;;;;;;6275314;22;20489;-80
2022/10/24 15:12:25;;;;;;;28.40;10.40;;;;;;;;;;6248847;22;20330;-79
2022/10/24 15:14:53;;;;;;;25.70;9.98;;;;;;;;;;6249211;22;20007;-80
2022/10/24 15:17:30;;;;;;;29.33;9.50;;;;;;;;;;6246873;22;20004;-79